Time;durP1;ratioP1;P1;durP2;ratioP2;P2;SDS_P1;SDS_P2;PMS_P1;PMS_P2;Temp;Humidity;BMP_temperature;BMP_pressure;BME280_temperature;BME280_humidity;BME280_pressure;Samples;Min_cycle;Max_cycle;Signal;HPM_P1;HPM_P2
2023/03/06 21:03:58;;;;;;;;;;;;;;;14.28;63.34;100311.25;7393756;19;1384;-42
2023/03/06 21:06:34;;;;;;;;;;;;;;;14.25;63.45;100287.50;7397341;19;1038;-42
2023/03/06 21:09:02;;;;;;;;;;;;;;;14.21;63.45;100302.00;7395724;19;1842;-42
2023/03/06 21:11:31;;;;;;;;;;;;;;;14.13;63.41;100283.97;7396376;19;1051;-41
2023/03/06 21:13:59;;;;;;;;;;;;;;;14.11;63.76;100295.69;7396965;19;992;-42
2023/03/06 21:16:28;;;;;;;;;;;;;;;14.06;63.58;100282.72;7397166;19;1006;-42
2023/03/06 21:19:01;;;;;;;;;;;;;;;14.07;64.00;100287.09;7396108;19;1936;-42
2023/03/06 21:21:31;;;;;;;;;;;;;;;14.12;63.99;100297.38;7397008;19;972;-42
2023/03/06 21:24:01;;;;;;;;;;;;;;;14.16;63.69;100303.31;7396892;19;1097;-41
2023/03/06 21:26:32;;;;;;;;;;;;;;;14.22;63.25;100286.91;7396386;19;1033;-42
2023/03/06 21:29:02;;;;;;;;;;;;;;;14.23;63.24;100289.44;7396258;19;1854;-42
2023/03/06 21:31:32;;;;;;;;;;;;;;;14.22;63.24;100281.56;7395866;19;904;-42
2023/03/06 21:34:03;;;;;;;;;;;;;;;14.16;63.39;100292.69;7395694;19;1003;-42
2023/03/06 21:36:32;;;;;;;;;;;;;;;14.10;63.87;100273.56;7396601;19;992;-42
2023/03/06 21:39:00;;;;;;;;;;;;;;;14.07;63.79;100270.31;7396546;19;963;-41
2023/03/06 21:41:31;;;;;;;;;;;;;;;14.05;63.86;100281.03;7398504;19;1026;-42
2023/03/06 21:44:00;;;;;;;;;;;;;;;14.10;63.57;100257.59;7403683;19;1030;-42
2023/03/06 21:46:29;;;;;;;;;;;;;;;14.14;63.80;100242.25;7403226;19;931;-42
2023/03/06 21:48:58;;;;;;;;;;;;;;;14.25;63.45;100252.94;7402753;19;1842;-42
2023/03/06 21:51:29;;;;;;;;;;;;;;;14.21;63.65;100266.59;7403207;19;1064;-42
2023/03/06 21:53:57;;;;;;;;;;;;;;;14.19;63.70;100250.75;7403010;19;1034;-42
2023/03/06 21:56:27;;;;;;;;;;;;;;;14.11;63.64;100258.47;7402545;19;1043;-42
2023/03/06 21:58:57;;;;;;;;;;;;;;;14.13;63.80;100267.19;7402273;19;1026;-42
2023/03/06 22:01:27;;;;;;;;;;;;;;;14.05;63.46;100257.13;7402293;19;1018;-42
2023/03/06 22:03:56;;;;;;;;;;;;;;;14.08;63.86;100275.47;7401957;19;1162;-42
2023/03/06 22:06:26;;;;;;;;;;;;;;;14.07;63.71;100267.66;7402968;19;1022;-42
2023/03/06 22:08:59;;;;;;;;;;;;;;;14.18;63.50;100267.66;7402234;19;1827;-42
2023/03/06 22:11:36;;;;;;;;;;;;;;;14.21;63.15;100270.09;7401913;19;1031;-42
2023/03/06 22:14:04;;;;;;;;;;;;;;;14.16;63.63;100258.94;7401717;19;1004;-42
2023/03/06 22:16:32;;;;;;;;;;;;;;;14.14;63.48;100255.56;7402211;19;983;-41
2023/03/06 22:19:02;;;;;;;;;;;;;;;14.05;63.72;100258.94;7402028;19;1225;-42
2023/03/06 22:21:30;;;;;;;;;;;;;;;14.05;63.70;100251.81;7402471;19;982;-42
2023/03/06 22:24:03;;;;;;;;;;;;;;;14.03;63.98;100255.53;7401390;19;1102;-41
2023/03/06 22:26:34;;;;;;;;;;;;;;;13.99;63.92;100243.44;7402018;19;1052;-41
2023/03/06 22:29:03;;;;;;;;;;;;;;;14.08;63.70;100242.72;7401263;19;1852;-41
2023/03/06 22:31:31;;;;;;;;;;;;;;;14.15;63.41;100238.66;7401391;19;1043;-42
2023/03/06 22:34:01;;;;;;;;;;;;;;;14.17;63.44;100252.69;7402085;19;1213;-41
2023/03/06 22:36:31;;;;;;;;;;;;;;;14.14;63.54;100242.25;7401990;19;1030;-42
2023/03/06 22:39:03;;;;;;;;;;;;;;;14.08;63.51;100253.38;7401677;19;1026;-42
2023/03/06 22:41:31;;;;;;;;;;;;;;;14.06;63.73;100244.66;7400929;19;1166;-42
2023/03/06 22:44:01;;;;;;;;;;;;;;;14.01;63.74;100236.22;7401736;19;1085;-41
2023/03/06 22:46:29;;;;;;;;;;;;;;;14.06;63.60;100239.34;7401741;19;1019;-41
2023/03/06 22:48:57;;;;;;;;;;;;;;;14.10;63.89;100251.44;7401426;19;979;-42
2023/03/06 22:51:28;;;;;;;;;;;;;;;14.13;63.77;100241.44;7399215;19;1862;-41
2023/03/06 22:53:56;;;;;;;;;;;;;;;14.18;63.58;100238.41;7398749;19;1027;-42
2023/03/06 22:56:33;;;;;;;;;;;;;;;14.13;63.65;100240.59;7400453;19;979;-42
2023/03/06 22:59:03;;;;;;;;;;;;;;;14.07;63.36;100235.75;7400294;19;1141;-41
2023/03/06 23:01:33;;;;;;;;;;;;;;;14.05;63.38;100229.69;7400977;19;1050;-41
2023/03/06 23:04:03;;;;;;;;;;;;;;;14.04;63.48;100231.47;7400290;19;1806;-42
2023/03/06 23:06:34;;;;;;;;;;;;;;;14.10;63.81;100240.81;7400637;19;1011;-42
2023/03/06 23:09:04;;;;;;;;;;;;;;;14.12;63.46;100229.13;7399943;19;1047;-42
2023/03/06 23:11:35;;;;;;;;;;;;;;;14.20;63.39;100225.00;7398655;19;1868;-42
2023/03/06 23:14:04;;;;;;;;;;;;;;;14.18;63.42;100238.41;7400543;19;1022;-42
2023/03/06 23:16:34;;;;;;;;;;;;;;;14.12;63.41;100218.47;7400684;19;1184;-42
2023/03/06 23:19:08;;;;;;;;;;;;;;;14.06;63.64;100239.34;7400543;19;952;-41
2023/03/06 23:21:37;;;;;;;;;;;;;;;14.00;63.58;100231.84;7399557;19;1137;-41
2023/03/06 23:24:06;;;;;;;;;;;;;;;14.00;63.93;100224.69;7399472;19;1106;-41
2023/03/06 23:26:38;;;;;;;;;;;;;;;13.95;63.79;100215.38;7399973;19;1011;-42
2023/03/06 23:29:06;;;;;;;;;;;;;;;13.99;63.92;100232.81;7399307;19;1086;-42
2023/03/06 23:31:36;;;;;;;;;;;;;;;14.05;63.39;100221.72;7397496;19;1830;-42
2023/03/06 23:34:04;;;;;;;;;;;;;;;14.08;63.54;100222.31;7399204;19;1065;-41
2023/03/06 23:36:33;;;;;;;;;;;;;;;14.07;63.41;100222.44;7399154;19;1077;-42
2023/03/06 23:39:02;;;;;;;;;;;;;;;14.03;63.36;100218.31;7399437;19;1034;-41
2023/03/06 23:41:30;;;;;;;;;;;;;;;14.00;63.95;100194.63;7399071;19;1042;-42
2023/03/06 23:44:01;;;;;;;;;;;;;;;13.98;63.71;100204.53;7398802;19;1129;-41
2023/03/06 23:46:29;;;;;;;;;;;;;;;13.93;63.77;100205.72;7399650;19;1029;-42
2023/03/06 23:48:59;;;;;;;;;;;;;;;13.97;63.75;100208.16;7398646;19;1129;-41
2023/03/06 23:51:27;;;;;;;;;;;;;;;14.02;63.53;100213.97;7397125;19;1857;-42
2023/03/06 23:53:56;;;;;;;;;;;;;;;14.04;63.39;100194.25;7398558;19;1102;-41
2023/03/06 23:56:25;;;;;;;;;;;;;;;14.08;63.53;100224.13;7398511;19;1078;-42
2023/03/06 23:58:55;;;;;;;;;;;;;;;14.00;63.55;100195.47;7399231;19;958;-42
